Forside
METAR-TAF:

METAR-TAF

Lufthavne :

New Century AirCenter

Olathe, Kansas, USA

Breddekreds: 38-49-28N, længdekreds: 094-53-13W, højde: 331 m

Aktuelle vejr

Denne rapport blev lavet for 59 minutter siden, kl. 23:53 UTC
Vind 6 kt fra sydsydvest
Temperatur 14°C
Fugtighed 88%
Tryk 1018 hPa
Sigt: 16.1 km
skyfri

METAR: KIXD 192353Z 20006KT 10SM CLR 14/12 A3007 RMK AO2 SLP181 T01390117 10167 20128 53006

Tid: 19:52 (00:52 UTC)

Vejrudsigter

Denne rapport blev lavet for 1 time og 32 minutter siden, kl. 23:20 UTC
Foreløbig gælder fra 20 på 00 UTC til 20 på 24 UTC
Vind 7 kt fra vest
Sigt: 10 km
Spredte skyer i en højde af 20000 ft
Fra 20 på 0200 UTC
Vind 7 kt fra vestnordvest
Sigt: 10 km
skyfri
Fra 20 på 1700 UTC
Vind 15 kt fra nordnordvest med vindstød på up til 25 kt
Sigt: 10 km
skyfri
Fra 20 på 2300 UTC
Vind 9 kt fra nord
Sigt: 10 km
skyfri

TAF: KIXD 192320Z 2000/2024 26007KT P6SM SCT200 FM200200 30007KT P6SM SKC FM201700 33015G25KT P6SM SKC FM202300 35009KT P6SM SKC

Vejrobservationer og prognoser fra mere end 4000 lufthavne (METAR og TAF).

De gule og røde prikker repræsenterer de meteorologiske stationer.

Flyt musen over at se navnet på stationen.

Så klik over at se vejr observationer og prognoser.

At skifte det kort: Klik på de grønne knapper med et sort kors for at zoome ind; på den grønne knap med en bindestreg for at zoome ud; eller på de grønne pile for tilstødende kort.


METAR-TAF: